Time;durP1;ratioP1;P1;durP2;ratioP2;P2;SDS_P1;SDS_P2;PMS_P1;PMS_P2;Temp;Humidity;BMP_temperature;BMP_pressure;BME280_temperature;BME280_humidity;BME280_pressure;Samples;Min_cycle;Max_cycle;Signal;HPM_P1;HPM_P2
2023/08/05 00:00:35;;;;;;;2.10;1.50;;;;;;;24.78;47.95;97808.28;2086984;28;20052;-56
2023/08/05 00:01:36;;;;;;;2.47;0.75;;;;;;;24.71;48.04;97809.34;2086848;28;20113;-51
2023/08/05 00:02:37;;;;;;;5.20;1.27;;;;;;;24.66;48.32;97803.91;2086183;28;20503;-52
2023/08/05 00:03:38;;;;;;;5.72;1.13;;;;;;;24.66;48.79;97812.03;2085867;28;20141;-50
2023/08/05 00:04:40;;;;;;;2.78;1.67;;;;;;;24.61;48.59;97803.88;2085670;28;20137;-53
2023/08/05 00:05:40;;;;;;;2.08;0.80;;;;;;;24.56;48.54;97811.16;2085436;28;20647;-56
2023/08/05 00:06:42;;;;;;;3.55;0.77;;;;;;;24.49;48.65;97811.41;2084444;28;20393;-49
2023/08/05 00:07:43;;;;;;;2.60;1.13;;;;;;;24.45;48.89;97815.69;2085500;28;20138;-54
2023/08/05 00:08:45;;;;;;;3.92;1.20;;;;;;;24.38;48.86;97813.19;2084385;28;20462;-51
2023/08/05 00:09:45;;;;;;;3.08;1.20;;;;;;;24.33;49.12;97812.34;2085078;28;20469;-53
2023/08/05 00:10:48;;;;;;;2.97;1.17;;;;;;;24.39;48.50;97808.59;2083897;28;20053;-47
2023/08/05 00:11:48;;;;;;;2.65;1.33;;;;;;;24.42;48.71;97813.47;2085259;28;20048;-54
2023/08/05 00:12:50;;;;;;;3.55;1.05;;;;;;;24.43;48.35;97810.56;2083079;28;20098;-52
2023/08/05 00:13:51;;;;;;;2.08;0.75;;;;;;;24.51;48.34;97814.66;2085220;28;20495;-54
2023/08/05 00:14:52;;;;;;;6.30;1.38;;;;;;;24.57;48.49;97813.59;2082265;28;20048;-50
2023/08/05 00:15:55;;;;;;;3.80;1.45;;;;;;;24.63;47.98;97818.00;2086425;28;20048;-55
2023/08/05 00:16:56;;;;;;;3.70;0.93;;;;;;;24.69;47.98;97819.63;2086989;28;20041;-53
2023/08/05 00:17:57;;;;;;;2.30;1.00;;;;;;;24.71;48.13;97814.78;2083030;28;20474;-55
2023/08/05 00:18:59;;;;;;;2.95;2.28;;;;;;;24.72;47.73;97816.41;2085911;28;20052;-53
2023/08/05 00:19:59;;;;;;;3.45;0.82;;;;;;;24.73;47.73;97823.44;2087126;28;20415;-55
2023/08/05 00:21:01;;;;;;;2.53;1.45;;;;;;;24.73;47.74;97820.72;2083883;28;20070;-50
2023/08/05 00:22:02;;;;;;;1.35;0.60;;;;;;;24.71;47.91;97817.50;2086117;28;20103;-53
2023/08/05 00:23:04;;;;;;;3.10;1.17;;;;;;;24.66;48.13;97822.88;2085414;28;20044;-50
2023/08/05 00:24:05;;;;;;;1.90;0.77;;;;;;;24.60;48.03;97821.22;2083981;28;20052;-51
2023/08/05 00:25:07;;;;;;;2.30;0.98;;;;;;;24.55;47.94;97821.19;2083906;28;20183;-48
2023/08/05 00:26:08;;;;;;;2.30;1.02;;;;;;;24.55;48.32;97826.59;2082417;28;20486;-56
2023/08/05 00:27:09;;;;;;;3.35;0.98;;;;;;;24.55;48.30;97832.03;2088107;28;20491;-53
2023/08/05 00:28:10;;;;;;;2.47;1.17;;;;;;;24.55;48.11;97831.22;2085355;28;21459;-49
2023/08/05 00:29:12;;;;;;;4.70;1.02;;;;;;;24.50;48.36;97832.81;2083662;28;20503;-47
2023/08/05 00:30:13;;;;;;;6.45;1.90;;;;;;;24.52;47.97;97819.81;2087091;28;20160;-48
2023/08/05 00:31:16;;;;;;;4.25;1.55;;;;;;;24.55;48.04;97826.59;2083423;28;21295;-50
2023/08/05 00:32:16;;;;;;;3.65;1.20;;;;;;;24.54;48.46;97824.97;2085529;28;20048;-50
2023/08/05 00:33:18;;;;;;;4.13;0.93;;;;;;;24.52;48.41;97827.13;2084011;28;20455;-49
2023/08/05 00:34:19;;;;;;;3.33;1.05;;;;;;;24.49;48.58;97817.63;2087355;28;20044;-51
2023/08/05 00:35:20;;;;;;;4.20;1.23;;;;;;;24.51;48.63;97820.06;2084860;28;20045;-55
2023/08/05 00:36:22;;;;;;;2.00;1.00;;;;;;;24.50;48.47;97818.44;2081179;28;20052;-54
2023/08/05 00:37:22;;;;;;;6.00;1.50;;;;;;;24.47;48.92;97816.25;2086026;28;20599;-49
2023/08/05 00:38:24;;;;;;;4.55;1.27;;;;;;;24.45;48.78;97815.69;2084708;28;20384;-51
2023/08/05 00:39:25;;;;;;;4.45;1.25;;;;;;;24.47;48.66;97821.69;2082122;28;20045;-50
2023/08/05 00:40:27;;;;;;;6.13;1.00;;;;;;;24.49;48.78;97827.66;2086443;28;20135;-53
2023/08/05 00:41:27;;;;;;;3.17;1.25;;;;;;;24.56;48.60;97828.22;2083564;28;20619;-52
2023/08/05 00:42:28;;;;;;;5.68;1.17;;;;;;;24.60;48.58;97823.09;2084549;28;20060;-47
2023/08/05 00:43:30;;;;;;;3.13;0.88;;;;;;;24.63;48.30;97823.41;2085532;28;20052;-50
2023/08/05 00:44:31;;;;;;;3.45;1.00;;;;;;;24.62;48.19;97816.34;2082949;28;20056;-50
2023/08/05 00:45:33;;;;;;;1.88;1.25;;;;;;;24.59;48.28;97814.16;2084499;28;20680;-50
2023/08/05 00:46:35;;;;;;;5.60;0.90;;;;;;;24.56;48.63;97817.38;2084836;28;20461;-47
2023/08/05 00:47:37;;;;;;;2.08;1.00;;;;;;;24.52;48.71;97808.16;2084210;28;20233;-55
2023/08/05 00:48:38;;;;;;;5.13;0.77;;;;;;;24.51;48.75;97809.22;2083868;28;20075;-48
2023/08/05 00:49:40;;;;;;;3.72;0.90;;;;;;;24.46;48.61;97804.59;2085997;28;20681;-53
2023/08/05 00:50:41;;;;;;;4.05;1.10;;;;;;;24.45;48.73;97805.66;2086177;28;20044;-49
2023/08/05 00:51:43;;;;;;;4.35;0.82;;;;;;;24.46;49.15;97795.63;2083411;28;20059;-51
2023/08/05 00:52:44;;;;;;;2.35;0.93;;;;;;;24.45;49.15;97788.59;2083387;28;20198;-47
2023/08/05 00:53:47;;;;;;;3.83;1.30;;;;;;;24.43;48.87;97785.28;2085171;28;20071;-49
2023/08/05 00:54:48;;;;;;;3.90;1.00;;;;;;;24.38;49.20;97794.22;2087367;28;20075;-53
2023/08/05 00:55:51;;;;;;;3.30;1.20;;;;;;;24.44;48.84;97792.38;2088050;28;20041;-51
2023/08/05 00:56:52;;;;;;;2.92;1.23;;;;;;;24.48;48.68;97788.06;2086143;28;20068;-50
2023/08/05 00:57:53;;;;;;;3.58;1.05;;;;;;;24.51;48.75;97784.81;2086691;28;20059;-50
2023/08/05 00:58:54;;;;;;;4.03;1.30;;;;;;;24.51;48.79;97773.97;2087284;28;20243;-49
2023/08/05 00:59:56;;;;;;;3.55;1.08;;;;;;;24.46;49.18;97780.22;2085702;28;20446;-52
2023/08/05 01:00:57;;;;;;;4.88;2.42;;;;;;;24.37;49.29;97778.22;2085211;28;20041;-51
2023/08/05 01:02:00;;;;;;;5.40;1.60;;;;;;;24.29;49.76;97771.38;2087385;28;20052;-52
2023/08/05 01:03:01;;;;;;;2.83;1.02;;;;;;;24.24;49.49;97771.38;2084194;28;20044;-52
2023/08/05 01:04:01;;;;;;;4.75;1.23;;;;;;;24.24;49.71;97765.97;2084496;28;20054;-52
2023/08/05 01:05:04;;;;;;;2.15;0.93;;;;;;;24.23;49.66;97765.13;2086675;28;20697;-47
2023/08/05 01:06:05;;;;;;;4.75;1.40;;;;;;;24.23;50.00;97764.31;2083439;28;20127;-47
2023/08/05 01:07:07;;;;;;;4.25;1.00;;;;;;;24.23;50.20;97759.69;2084664;28;20055;-56
2023/08/05 01:08:10;;;;;;;3.25;1.50;;;;;;;24.15;49.90;97757.47;2084761;28;20048;-56
2023/08/05 01:09:12;;;;;;;2.85;0.95;;;;;;;24.14;49.94;97755.84;2084857;28;20449;-48
2023/08/05 01:10:13;;;;;;;3.20;1.25;;;;;;;24.10;50.38;97754.75;2083454;28;20061;-53
2023/08/05 01:11:16;;;;;;;5.15;1.30;;;;;;;24.09;50.03;97747.69;2086361;28;20041;-53
2023/08/05 01:12:17;;;;;;;6.95;2.28;;;;;;;24.08;49.98;97748.78;2083592;28;20135;-55
2023/08/05 01:13:17;;;;;;;6.95;1.52;;;;;;;24.07;50.39;97745.25;2085239;28;20768;-48
2023/08/05 01:14:19;;;;;;;6.38;1.95;;;;;;;24.07;50.30;97739.00;2082229;28;20097;-54
2023/08/05 01:15:20;;;;;;;4.68;1.13;;;;;;;24.06;50.08;97732.78;2084218;28;20048;-56
2023/08/05 01:16:22;;;;;;;9.32;1.42;;;;;;;24.13;50.18;97737.97;2083870;28;20049;-53
2023/08/05 01:17:24;;;;;;;3.75;1.88;;;;;;;24.21;49.65;97733.94;2084679;28;20071;-50
2023/08/05 01:18:28;;;;;;;3.55;1.10;;;;;;;24.28;49.70;97735.34;2083172;28;20080;-51
2023/08/05 01:19:31;;;;;;;5.85;1.42;;;;;;;24.42;49.68;97737.59;2084144;28;20940;-51
2023/08/05 01:20:38;;;;;;;3.67;1.25;;;;;;;24.48;49.29;97731.13;2085425;28;20068;-48
2023/08/05 01:21:49;;;;;;;8.93;1.42;;;;;;;24.54;49.18;97735.50;2086620;28;20144;-50
2023/08/05 01:22:54;;;;;;;4.90;1.40;;;;;;;24.58;49.25;97727.69;2081757;28;20040;-54
2023/08/05 01:24:05;;;;;;;5.25;1.25;;;;;;;24.59;48.71;97730.09;2076947;28;20049;-51
2023/08/05 01:25:26;;;;;;;4.38;1.10;;;;;;;24.48;49.06;97723.00;2081659;28;20052;-50
2023/08/05 01:26:28;;;;;;;5.10;1.30;;;;;;;24.42;49.43;97730.28;2083830;28;20076;-52
2023/08/05 01:27:32;;;;;;;4.20;1.05;;;;;;;24.42;49.24;97726.75;2083208;28;20403;-52
2023/08/05 01:28:34;;;;;;;4.72;1.30;;;;;;;24.39;49.66;97727.28;2086744;28;21162;-50
2023/08/05 01:29:35;;;;;;;4.78;1.48;;;;;;;24.35;49.24;97732.41;2083854;28;20258;-50
2023/08/05 01:30:38;;;;;;;3.13;1.67;;;;;;;24.30;49.56;97726.97;2084752;28;20052;-53
2023/08/05 01:31:40;;;;;;;4.18;0.90;;;;;;;24.29;49.14;97728.03;2083324;28;20048;-47
2023/08/05 01:32:43;;;;;;;4.72;1.23;;;;;;;24.29;49.46;97730.72;2085916;28;20059;-52
2023/08/05 01:33:46;;;;;;;4.65;1.35;;;;;;;24.32;49.17;97724.78;2085887;28;20048;-49
2023/08/05 01:34:48;;;;;;;3.38;0.90;;;;;;;24.28;49.39;97721.78;2082237;28;20589;-53
2023/08/05 01:35:49;;;;;;;3.85;1.20;;;;;;;24.28;49.54;97712.84;2085026;28;20485;-51
2023/08/05 01:36:51;;;;;;;3.42;1.33;;;;;;;24.30;49.57;97711.50;2085114;28;20045;-47
2023/08/05 01:37:52;;;;;;;3.58;1.15;;;;;;;24.32;49.17;97713.94;2086628;28;20080;-53
2023/08/05 01:38:54;;;;;;;5.55;1.27;;;;;;;24.28;49.58;97718.28;2085449;28;20075;-56
2023/08/05 01:39:54;;;;;;;5.30;1.63;;;;;;;24.22;49.47;97717.44;2083168;28;20075;-53
2023/08/05 01:40:57;;;;;;;2.92;0.80;;;;;;;24.19;49.36;97712.53;2084244;28;20049;-47
2023/08/05 01:41:58;;;;;;;4.70;1.08;;;;;;;24.23;49.71;97720.94;2083509;28;20096;-51
2023/08/05 01:43:00;;;;;;;5.20;1.30;;;;;;;24.26;49.67;97712.28;2077001;28;20369;-54
2023/08/05 01:44:00;;;;;;;2.45;1.25;;;;;;;24.27;49.48;97712.03;2081285;28;20049;-55
2023/08/05 01:45:02;;;;;;;5.70;1.15;;;;;;;24.26;49.18;97713.09;2083672;28;20530;-50
2023/08/05 01:46:03;;;;;;;3.55;0.90;;;;;;;24.29;49.36;97718.03;2085252;28;20514;-52
2023/08/05 01:47:05;;;;;;;6.68;1.23;;;;;;;24.36;48.87;97715.06;2083935;28;20048;-55
2023/08/05 01:48:06;;;;;;;7.57;1.08;;;;;;;24.40;48.97;97721.56;2084740;28;20051;-50
2023/08/05 01:49:08;;;;;;;4.32;0.90;;;;;;;24.45;49.10;97723.53;2083801;28;20507;-49
2023/08/05 01:50:09;;;;;;;3.25;1.35;;;;;;;24.48;49.12;97728.44;2088020;28;20044;-51
2023/08/05 01:51:11;;;;;;;6.10;0.95;;;;;;;24.52;48.99;97724.94;2085511;28;20047;-55
2023/08/05 01:52:11;;;;;;;2.92;0.68;;;;;;;24.56;48.79;97730.63;2083475;28;20211;-50
2023/08/05 01:53:13;;;;;;;5.45;0.95;;;;;;;24.59;48.71;97721.97;2081252;28;20484;-53
2023/08/05 01:54:15;;;;;;;1.90;0.73;;;;;;;24.61;48.57;97725.25;2085454;28;20068;-54
2023/08/05 01:55:16;;;;;;;3.22;0.90;;;;;;;24.65;48.86;97728.22;2082915;28;20659;-49
2023/08/05 01:56:18;;;;;;;2.92;1.27;;;;;;;24.65;48.72;97723.63;2084698;28;20122;-56
2023/08/05 01:57:20;;;;;;;4.32;1.73;;;;;;;24.65;48.66;97720.91;2085814;28;20208;-54
2023/08/05 01:58:21;;;;;;;6.63;1.30;;;;;;;24.63;48.50;97714.97;2087436;28;20089;-56
2023/08/05 01:59:22;;;;;;;3.55;1.17;;;;;;;24.60;48.65;97720.91;2081337;28;20086;-50
2023/08/05 02:00:23;;;;;;;3.88;1.10;;;;;;;24.56;48.09;97711.66;2084869;28;20053;-54
2023/08/05 02:01:39;;;;;;;4.30;1.13;;;;;;;24.55;48.10;97726.31;2086393;28;20568;-53
2023/08/05 02:02:41;;;;;;;5.10;2.15;;;;;;;24.54;48.55;97716.53;2085534;28;20444;-52
2023/08/05 02:03:42;;;;;;;5.88;1.08;;;;;;;24.58;48.07;97722.25;2084794;28;20053;-50
2023/08/05 02:04:43;;;;;;;1.02;0.73;;;;;;;24.58;47.84;97723.06;2082884;28;20056;-53
2023/08/05 02:05:44;;;;;;;2.67;0.73;;;;;;;24.61;48.19;97719.81;2084996;28;20365;-47
2023/08/05 02:06:46;;;;;;;3.55;0.80;;;;;;;24.63;48.05;97725.81;2083629;28;20059;-49
2023/08/05 02:07:47;;;;;;;3.30;1.10;;;;;;;24.65;48.26;97720.91;2083197;28;20843;-53
2023/08/05 02:08:48;;;;;;;2.13;1.00;;;;;;;24.65;48.00;97720.91;2083619;28;20057;-52
2023/08/05 02:09:49;;;;;;;1.73;1.15;;;;;;;24.63;48.17;97725.00;2085005;28;20044;-53
2023/08/05 02:10:51;;;;;;;2.63;1.40;;;;;;;24.64;47.81;97715.75;2085361;28;20137;-51
2023/08/05 02:11:53;;;;;;;7.57;1.27;;;;;;;24.67;47.69;97717.94;2084882;28;20072;-48
2023/08/05 02:12:55;;;;;;;6.63;1.70;;;;;;;24.68;48.25;97712.28;2082562;28;20060;-52
2023/08/05 02:13:55;;;;;;;3.83;1.27;;;;;;;24.69;47.97;97713.88;2084602;28;20052;-53
2023/08/05 02:14:57;;;;;;;4.05;0.90;;;;;;;24.72;48.29;97705.22;2080988;28;20098;-51
2023/08/05 02:15:58;;;;;;;4.20;0.80;;;;;;;24.72;47.65;97699.78;2083457;28;20125;-48
2023/08/05 02:16:59;;;;;;;4.00;0.93;;;;;;;24.70;47.94;97696.53;2083754;28;20053;-50
2023/08/05 02:18:00;;;;;;;5.20;0.95;;;;;;;24.72;47.59;97698.97;2084907;28;20113;-56
2023/08/05 02:19:02;;;;;;;2.70;1.02;;;;;;;24.72;47.49;97699.78;2084214;28;20052;-50
2023/08/05 02:20:04;;;;;;;4.10;1.20;;;;;;;24.72;47.41;97702.50;2085153;28;20124;-55
2023/08/05 02:21:05;;;;;;;9.63;1.50;;;;;;;24.73;47.51;97696.00;2083896;28;21099;-54
2023/08/05 02:22:06;;;;;;;3.25;1.15;;;;;;;24.73;47.98;97692.47;2083851;28;20143;-52
2023/08/05 02:23:08;;;;;;;4.50;0.85;;;;;;;24.74;47.44;97700.34;2083870;28;20059;-46
2023/08/05 02:24:09;;;;;;;3.38;1.10;;;;;;;24.74;47.83;97699.53;2083353;28;20041;-52
2023/08/05 02:25:10;;;;;;;2.90;0.75;;;;;;;24.77;47.85;97692.75;2082394;28;20051;-54
2023/08/05 02:26:12;;;;;;;3.40;0.73;;;;;;;24.80;47.77;97697.66;2084686;28;20083;-48
2023/08/05 02:27:14;;;;;;;4.25;0.80;;;;;;;24.78;47.45;97688.97;2085743;28;20388;-55
2023/08/05 02:28:16;;;;;;;3.38;0.75;;;;;;;24.75;47.32;97685.69;2084817;28;20044;-50
2023/08/05 02:29:16;;;;;;;2.53;0.85;;;;;;;24.75;47.52;97685.69;2084763;28;20545;-52
2023/08/05 02:30:18;;;;;;;2.60;0.95;;;;;;;24.74;47.44;97684.09;2081330;28;20458;-52
2023/08/05 02:31:19;;;;;;;1.50;0.88;;;;;;;24.72;47.65;97675.41;2085967;28;20572;-54
2023/08/05 02:32:20;;;;;;;2.47;0.68;;;;;;;24.73;47.84;97674.31;2083280;28;20044;-55
2023/08/05 02:33:21;;;;;;;2.13;0.70;;;;;;;24.75;47.75;97677.56;2082689;28;20102;-56
2023/08/05 02:34:22;;;;;;;3.92;0.88;;;;;;;24.77;47.27;97674.59;2084643;28;20083;-52
2023/08/05 02:35:24;;;;;;;2.97;1.20;;;;;;;24.82;47.17;97673.78;2085948;28;20056;-48
2023/08/05 02:36:24;;;;;;;3.63;0.90;;;;;;;24.79;47.72;97669.69;2085873;28;20479;-54
2023/08/05 02:37:26;;;;;;;6.07;1.38;;;;;;;24.81;47.60;97674.88;2083780;28;20048;-56
2023/08/05 02:38:27;;;;;;;5.57;0.82;;;;;;;24.79;47.70;97677.84;2085384;28;20846;-53
2023/08/05 02:39:29;;;;;;;5.60;1.75;;;;;;;24.81;47.83;97683.81;2084852;28;20130;-54
2023/08/05 02:40:32;;;;;;;4.25;0.98;;;;;;;24.80;47.76;97682.19;2080249;28;20051;-56
2023/08/05 02:41:33;;;;;;;5.60;0.98;;;;;;;24.78;47.62;97692.50;2083286;28;20075;-54
2023/08/05 02:42:36;;;;;;;4.93;1.45;;;;;;;24.79;47.75;97696.00;2084006;28;20530;-56
2023/08/05 02:43:37;;;;;;;2.05;0.70;;;;;;;24.79;47.25;97702.25;2084561;28;20086;-53
2023/08/05 02:44:38;;;;;;;2.90;0.80;;;;;;;24.77;47.59;97698.16;2083136;28;20072;-54
2023/08/05 02:45:41;;;;;;;2.40;1.10;;;;;;;24.80;47.47;97703.09;2084063;28;20047;-55
2023/08/05 02:46:41;;;;;;;2.83;0.80;;;;;;;24.81;47.31;97693.84;2083948;28;20067;-53
2023/08/05 02:47:43;;;;;;;2.78;0.95;;;;;;;24.79;47.37;97694.13;2081110;28;20053;-49
2023/08/05 02:48:44;;;;;;;1.85;0.70;;;;;;;24.79;47.38;97696.81;2082651;28;20162;-52
2023/08/05 02:49:45;;;;;;;2.17;0.93;;;;;;;24.76;47.38;97697.34;2082772;28;21024;-51
2023/08/05 02:50:46;;;;;;;7.18;0.77;;;;;;;24.80;47.41;97697.66;2086700;28;20091;-53
2023/08/05 02:51:48;;;;;;;1.27;0.82;;;;;;;24.83;47.20;97699.84;2085465;28;21118;-50
2023/08/05 02:52:48;;;;;;;2.20;1.08;;;;;;;24.82;47.21;97700.91;2083133;28;20052;-55
2023/08/05 02:53:50;;;;;;;1.10;0.63;;;;;;;24.79;47.00;97706.84;2087072;28;20059;-51
2023/08/05 02:54:51;;;;;;;5.90;0.98;;;;;;;24.80;47.03;97719.34;2086269;28;20072;-52
2023/08/05 02:55:52;;;;;;;2.47;0.82;;;;;;;24.81;47.23;97718.25;2086532;28;20526;-47
2023/08/05 02:56:53;;;;;;;1.92;1.02;;;;;;;24.84;47.30;97720.44;2086030;28;20080;-50
2023/08/05 02:57:55;;;;;;;9.25;0.68;;;;;;;24.80;46.95;97719.34;2083494;28;20182;-51
2023/08/05 02:58:57;;;;;;;1.30;0.50;;;;;;;24.81;46.93;97727.22;2087687;28;20055;-53
2023/08/05 02:59:58;;;;;;;1.73;0.88;;;;;;;24.81;46.79;97729.13;2087116;28;20109;-48
2023/08/05 03:01:05;;;;;;;3.47;0.98;;;;;;;24.82;47.14;97728.84;2087464;28;20231;-47
2023/08/05 03:02:06;;;;;;;4.80;0.80;;;;;;;24.81;47.13;97720.97;2088456;28;20040;-47
2023/08/05 03:03:09;;;;;;;8.48;1.45;;;;;;;24.84;47.15;97734.81;2086123;28;20053;-47
2023/08/05 03:04:09;;;;;;;3.25;0.82;;;;;;;24.81;46.94;97729.13;2085934;28;20234;-53
2023/08/05 03:05:11;;;;;;;2.80;1.00;;;;;;;24.84;46.77;97725.88;2088690;28;20074;-49
2023/08/05 03:06:12;;;;;;;5.25;0.68;;;;;;;24.84;47.12;97721.25;2085076;28;20078;-50
2023/08/05 03:07:14;;;;;;;4.07;0.60;;;;;;;24.84;46.57;97728.56;2086907;28;20122;-48
2023/08/05 03:08:14;;;;;;;3.05;0.80;;;;;;;24.79;46.96;97712.28;2082264;28;20271;-50
2023/08/05 03:09:16;;;;;;;3.47;1.27;;;;;;;24.79;46.86;97715.00;2085845;28;20395;-56
2023/08/05 03:10:18;;;;;;;1.50;0.80;;;;;;;24.82;46.98;97717.16;2085843;28;20403;-47
2023/08/05 03:11:21;;;;;;;3.95;0.57;;;;;;;24.80;46.60;97711.22;2084204;28;20151;-53
2023/08/05 03:12:22;;;;;;;2.33;0.65;;;;;;;24.84;47.12;97715.03;2084444;28;20037;-55
2023/08/05 03:13:25;;;;;;;7.57;1.20;;;;;;;24.84;47.00;97720.44;2082651;28;20052;-48
2023/08/05 03:14:26;;;;;;;3.50;0.80;;;;;;;24.83;47.14;97724.25;2083921;28;20053;-56
2023/08/05 03:15:28;;;;;;;2.70;0.80;;;;;;;24.82;47.02;97726.13;2085886;28;20057;-49
2023/08/05 03:16:29;;;;;;;0.90;0.60;;;;;;;24.82;47.13;97733.44;2084912;28;20276;-47
2023/08/05 03:17:32;;;;;;;4.75;0.90;;;;;;;24.82;46.84;97733.44;2086381;28;20469;-53
2023/08/05 03:18:33;;;;;;;3.97;0.90;;;;;;;24.80;46.53;97739.16;2086393;28;20558;-54
2023/08/05 03:19:35;;;;;;;3.55;0.70;;;;;;;24.81;46.50;97731.81;2084760;28;20059;-53
2023/08/05 03:20:35;;;;;;;2.03;0.73;;;;;;;24.73;46.81;97735.84;2076154;28;21524;-46
2023/08/05 03:21:37;;;;;;;2.30;0.98;;;;;;;24.72;47.03;97724.19;2084423;28;20063;-55
2023/08/05 03:22:38;;;;;;;3.65;0.98;;;;;;;24.70;46.86;97726.34;2085596;28;20059;-50
2023/08/05 03:23:39;;;;;;;1.88;0.80;;;;;;;24.70;46.99;97729.06;2083393;28;20063;-52
2023/08/05 03:24:40;;;;;;;3.95;0.90;;;;;;;24.73;46.52;97725.00;2086606;28;20838;-54
2023/08/05 03:25:42;;;;;;;2.03;0.63;;;;;;;24.72;46.46;97726.91;2085632;28;20287;-53
2023/08/05 03:26:42;;;;;;;3.13;0.70;;;;;;;24.73;46.47;97727.72;2085479;28;20076;-52
2023/08/05 03:27:44;;;;;;;3.63;0.75;;;;;;;24.75;47.02;97729.09;2085467;28;20534;-47
2023/08/05 03:28:46;;;;;;;4.00;0.70;;;;;;;24.81;46.90;97731.81;2083839;28;20052;-49
2023/08/05 03:29:48;;;;;;;3.80;0.95;;;;;;;24.79;47.02;97732.06;2085985;28;20523;-53
2023/08/05 03:30:49;;;;;;;4.72;1.33;;;;;;;24.81;46.82;97729.13;2085355;28;20044;-53
2023/08/05 03:31:51;;;;;;;4.18;1.35;;;;;;;24.78;46.48;97730.47;2085138;28;20052;-50
2023/08/05 03:32:51;;;;;;;3.15;1.17;;;;;;;24.75;46.78;97726.38;2084470;28;20506;-54
2023/08/05 03:33:53;;;;;;;6.00;1.00;;;;;;;24.73;46.69;97725.00;2083948;28;20188;-53
2023/08/05 03:34:54;;;;;;;2.80;1.05;;;;;;;24.72;46.55;97728.81;2084541;28;20072;-51
2023/08/05 03:35:55;;;;;;;3.15;0.82;;;;;;;24.72;46.53;97729.63;2085215;28;20691;-47
2023/08/05 03:36:57;;;;;;;5.20;1.95;;;;;;;24.72;46.58;97723.41;2084311;28;20284;-52
2023/08/05 03:37:58;;;;;;;3.08;0.88;;;;;;;24.70;46.98;97726.34;2085891;28;20589;-52
2023/08/05 03:39:00;;;;;;;1.77;0.93;;;;;;;24.70;46.54;97720.13;2087539;28;20049;-50
2023/08/05 03:40:00;;;;;;;3.35;0.93;;;;;;;24.68;46.98;97717.69;2086202;28;20102;-49
2023/08/05 03:41:03;;;;;;;6.18;0.90;;;;;;;24.63;46.96;97714.97;2086856;28;20077;-51
2023/08/05 03:42:04;;;;;;;1.90;0.80;;;;;;;24.56;46.61;97714.38;2083459;28;20057;-53
2023/08/05 03:43:06;;;;;;;0.82;0.70;;;;;;;24.60;46.81;97720.91;2084150;28;20041;-51
2023/08/05 03:44:08;;;;;;;1.75;0.90;;;;;;;24.62;46.95;97718.72;2085492;28;20049;-50
2023/08/05 03:45:11;;;;;;;4.18;0.65;;;;;;;24.63;46.80;97720.38;2083797;28;20365;-52
2023/08/05 03:46:11;;;;;;;2.78;0.70;;;;;;;24.65;46.91;97714.66;2083349;28;20071;-53
2023/08/05 03:47:13;;;;;;;6.93;2.22;;;;;;;24.68;46.80;97723.13;2085337;28;20052;-49
2023/08/05 03:48:14;;;;;;;4.50;1.25;;;;;;;24.69;47.00;97723.94;2084469;28;20065;-48
2023/08/05 03:49:16;;;;;;;2.35;1.17;;;;;;;24.70;47.05;97722.84;2088711;28;20070;-53
2023/08/05 03:50:17;;;;;;;1.50;0.60;;;;;;;24.67;47.05;97729.59;2083373;28;20617;-51
2023/08/05 03:51:17;;;;;;;3.90;1.23;;;;;;;24.67;47.09;97729.59;2083015;28;20048;-56
2023/08/05 03:52:19;;;;;;;3.05;1.05;;;;;;;24.66;47.21;97725.28;2087116;28;20499;-48
2023/08/05 03:53:21;;;;;;;2.85;0.75;;;;;;;24.65;47.13;97728.22;2076764;28;20049;-54
2023/08/05 03:54:22;;;;;;;2.42;1.20;;;;;;;24.63;47.06;97725.81;2076966;28;20037;-50
2023/08/05 03:55:23;;;;;;;1.73;1.00;;;;;;;24.64;47.20;97718.47;2076460;28;20091;-50
2023/08/05 03:56:27;;;;;;;2.92;0.82;;;;;;;24.63;47.22;97714.97;2076695;28;20045;-55
2023/08/05 03:57:28;;;;;;;2.50;0.75;;;;;;;24.64;46.81;97713.06;2076675;28;20106;-52
2023/08/05 03:58:28;;;;;;;1.38;0.55;;;;;;;24.62;47.13;97713.31;2075873;28;20569;-52
2023/08/05 03:59:31;;;;;;;2.10;1.20;;;;;;;24.65;47.26;97714.66;2075780;28;20178;-50
2023/08/05 04:00:32;;;;;;;4.13;0.98;;;;;;;24.62;47.43;97707.88;2077746;28;20141;-48
2023/08/05 04:01:34;;;;;;;1.42;1.00;;;;;;;24.65;46.96;97717.38;2075156;28;20049;-48
2023/08/05 04:02:36;;;;;;;1.75;0.70;;;;;;;24.63;47.04;97714.97;2074861;28;20495;-51
2023/08/05 04:03:37;;;;;;;1.73;0.75;;;;;;;24.63;47.15;97714.16;2077282;28;20052;-55
2023/08/05 04:04:38;;;;;;;2.95;0.95;;;;;;;24.62;47.37;97707.88;2078249;28;20737;-53
2023/08/05 04:05:40;;;;;;;2.08;0.85;;;;;;;24.60;47.23;97699.22;2083622;28;20418;-54
2023/08/05 04:06:41;;;;;;;1.13;0.82;;;;;;;24.59;47.13;97697.56;2086662;28;20125;-53
2023/08/05 04:07:43;;;;;;;2.05;0.70;;;;;;;24.60;47.23;97704.66;2083208;28;20511;-54
2023/08/05 04:08:44;;;;;;;4.22;0.90;;;;;;;24.61;47.24;97697.31;2085055;28;20684;-53
2023/08/05 04:09:46;;;;;;;2.00;0.90;;;;;;;24.55;47.53;97701.91;2084778;28;20399;-55
2023/08/05 04:10:46;;;;;;;3.65;0.88;;;;;;;24.49;47.54;97700.25;2083549;28;20068;-55
2023/08/05 04:11:49;;;;;;;1.85;0.80;;;;;;;24.42;47.42;97700.44;2087235;28;20044;-50
2023/08/05 04:12:50;;;;;;;4.32;0.70;;;;;;;24.35;47.66;97690.94;2084142;28;20057;-53
2023/08/05 04:13:52;;;;;;;0.70;0.68;;;;;;;24.30;47.83;97700.69;2086257;28;20045;-54
2023/08/05 04:14:58;;;;;;;1.90;0.80;;;;;;;24.26;47.72;97696.84;2084042;28;20306;-54
2023/08/05 04:16:03;;;;;;;1.85;0.95;;;;;;;24.23;47.92;97699.28;2084352;28;20063;-49
2023/08/05 04:17:05;;;;;;;3.00;1.10;;;;;;;24.21;47.97;97699.56;2087327;28;20348;-51
2023/08/05 04:18:06;;;;;;;2.88;1.30;;;;;;;24.23;47.67;97694.66;2085564;28;20047;-52
2023/08/05 04:19:08;;;;;;;1.08;0.57;;;;;;;24.24;47.63;97690.09;2085897;28;20076;-52
2023/08/05 04:20:09;;;;;;;2.63;0.98;;;;;;;24.28;47.51;97691.19;2087022;28;20139;-53
2023/08/05 04:21:10;;;;;;;2.17;0.80;;;;;;;24.29;47.66;97692.78;2085045;28;20045;-48
2023/08/05 04:22:13;;;;;;;1.33;0.65;;;;;;;24.34;47.26;97686.59;2082633;28;20056;-50
2023/08/05 04:23:18;;;;;;;2.25;1.10;;;;;;;24.35;47.74;97688.22;2084999;28;20141;-48
2023/08/05 04:24:23;;;;;;;3.65;0.93;;;;;;;24.26;47.84;97688.72;2084674;28;20075;-56
2023/08/05 04:25:24;;;;;;;4.53;0.80;;;;;;;24.24;47.48;97693.59;2086114;28;20047;-50
2023/08/05 04:26:27;;;;;;;2.63;1.00;;;;;;;24.25;47.72;97684.38;2084448;28;20057;-51
2023/08/05 04:27:27;;;;;;;4.25;1.00;;;;;;;24.26;48.09;97683.28;2084039;28;20445;-50
2023/08/05 04:28:29;;;;;;;3.13;1.63;;;;;;;24.28;47.96;97678.44;2084448;28;20370;-50
2023/08/05 04:29:30;;;;;;;2.63;0.77;;;;;;;24.26;48.38;97683.28;2086200;28;20632;-49
2023/08/05 04:30:33;;;;;;;4.35;0.95;;;;;;;24.24;48.10;97677.34;2085866;28;20059;-49
2023/08/05 04:31:34;;;;;;;1.33;0.82;;;;;;;24.21;48.25;97677.88;2085167;28;20413;-50
2023/08/05 04:32:36;;;;;;;2.40;1.45;;;;;;;24.22;48.35;97681.41;2082290;28;20484;-52
2023/08/05 04:33:37;;;;;;;3.40;1.17;;;;;;;24.25;48.32;97681.69;2083347;28;20072;-47
2023/08/05 04:34:38;;;;;;;3.13;0.80;;;;;;;24.25;48.38;97687.09;2085817;28;20052;-53
2023/08/05 04:35:44;;;;;;;1.50;0.60;;;;;;;24.21;48.50;97686.00;2084785;28;20053;-50
2023/08/05 04:36:49;;;;;;;2.28;0.90;;;;;;;24.24;48.27;97690.09;2084887;28;20067;-53
2023/08/05 04:37:50;;;;;;;3.20;0.90;;;;;;;24.27;48.32;97679.53;2088237;28;20062;-49
2023/08/05 04:38:52;;;;;;;3.55;1.25;;;;;;;24.26;48.16;97682.50;2084642;28;20053;-53
2023/08/05 04:39:52;;;;;;;1.45;0.90;;;;;;;24.24;48.07;97693.59;2083871;28;20056;-49
2023/08/05 04:40:54;;;;;;;0.95;0.68;;;;;;;24.21;48.44;97694.13;2086736;28;20453;-47
2023/08/05 04:41:55;;;;;;;2.35;0.85;;;;;;;24.21;48.26;97699.56;2083436;28;20052;-52
2023/08/05 04:42:55;;;;;;;2.90;1.30;;;;;;;24.22;48.70;97697.66;2085227;28;20507;-49
2023/08/05 04:43:57;;;;;;;2.38;1.00;;;;;;;24.26;48.22;97694.13;2087100;28;20816;-54
2023/08/05 04:45:00;;;;;;;1.65;0.85;;;;;;;24.33;48.19;97696.63;2084828;28;20742;-51
2023/08/05 04:46:03;;;;;;;1.67;0.88;;;;;;;24.28;48.29;97689.28;2088031;28;20129;-48
2023/08/05 04:47:04;;;;;;;2.72;1.00;;;;;;;24.20;48.53;97695.19;2085409;28;20092;-52
2023/08/05 04:48:06;;;;;;;3.40;1.20;;;;;;;24.16;49.04;97694.09;2085903;28;20573;-50
2023/08/05 04:49:09;;;;;;;3.42;1.13;;;;;;;24.08;49.19;97686.47;2085432;28;20087;-49
2023/08/05 04:50:11;;;;;;;4.68;1.00;;;;;;;24.06;49.45;97683.19;2087214;28;20175;-50
2023/08/05 04:51:12;;;;;;;6.38;1.33;;;;;;;24.04;49.09;97682.63;2086751;28;20049;-50